Time;durP1;ratioP1;P1;durP2;ratioP2;P2;SDS_P1;SDS_P2;PMS_P1;PMS_P2;Temp;Humidity;BMP_temperature;BMP_pressure;BME280_temperature;BME280_humidity;BME280_pressure;Samples;Min_cycle;Max_cycle;Signal;HPM_P1;HPM_P2
2021/07/06 00:00:37;;;;;;;;;;;17.40;99.90;;;;;;5035090;28;19925;-88
2021/07/06 00:03:03;;;;;;;;;;;17.40;99.90;;;;;;5086736;28;20292;-87
2021/07/06 00:05:29;;;;;;;;;;;17.40;99.90;;;;;;5021484;28;19931;-86
2021/07/06 00:07:55;;;;;;;;;;;17.40;99.90;;;;;;5069847;28;20267;-87
2021/07/06 00:10:21;;;;;;;;;;;17.40;99.90;;;;;;5069961;28;19921;-87
2021/07/06 00:12:48;;;;;;;;;;;17.40;99.90;;;;;;5053330;28;20027;-86
2021/07/06 00:15:14;;;;;;;;;;;17.40;99.90;;;;;;5053818;28;19970;-86
2021/07/06 00:17:40;;;;;;;;;;;17.30;99.90;;;;;;5053240;28;20535;-88
2021/07/06 00:20:10;;;;;;;;;;;17.30;99.90;;;;;;5053827;28;19920;-87
2021/07/06 00:22:36;;;;;;;;;;;17.30;99.90;;;;;;5053282;28;20385;-87
2021/07/06 00:25:03;;;;;;;;;;;17.30;99.90;;;;;;5050962;28;19924;-86
2021/07/06 00:27:28;;;;;;;;;;;17.30;99.90;;;;;;5033366;28;20349;-88
2021/07/06 00:29:54;;;;;;;;;;;17.30;99.90;;;;;;5032989;28;19967;-86
2021/07/06 00:32:20;;;;;;;;;;;17.30;99.90;;;;;;5033942;28;20338;-87
2021/07/06 00:34:45;;;;;;;;;;;17.40;99.90;;;;;;5049802;28;19921;-88
2021/07/06 00:37:11;;;;;;;;;;;17.30;99.90;;;;;;5066761;28;20280;-86
2021/07/06 00:39:37;;;;;;;;;;;17.40;99.90;;;;;;5049878;28;19964;-87
2021/07/06 00:42:07;;;;;;;;;;;17.40;99.90;;;;;;5049337;28;20012;-87
2021/07/06 00:44:33;;;;;;;;;;;17.30;99.90;;;;;;5033674;28;19972;-87
2021/07/06 00:46:58;;;;;;;;;;;17.30;99.90;;;;;;5049861;28;19963;-87
2021/07/06 00:49:24;;;;;;;;;;;17.30;99.90;;;;;;5051832;28;20323;-87
2021/07/06 00:51:50;;;;;;;;;;;17.30;99.90;;;;;;5045631;28;19928;-86
2021/07/06 00:54:17;;;;;;;;;;;17.30;99.90;;;;;;5052426;28;19943;-86
2021/07/06 00:56:45;;;;;;;;;;;17.30;99.90;;;;;;5036656;28;20019;-87
2021/07/06 00:59:12;;;;;;;;;;;17.30;99.90;;;;;;5036262;28;20011;-88
2021/07/06 01:01:38;;;;;;;;;;;17.30;99.90;;;;;;5052578;28;19932;-88
2021/07/06 01:04:03;;;;;;;;;;;17.30;99.90;;;;;;5036481;28;19921;-87
2021/07/06 01:06:30;;;;;;;;;;;17.30;99.90;;;;;;5035467;28;20007;-86
2021/07/06 01:08:55;;;;;;;;;;;17.30;99.90;;;;;;5052657;28;20007;-87
2021/07/06 01:11:21;;;;;;;;;;;17.30;99.90;;;;;;5052503;28;20059;-86
2021/07/06 01:13:47;;;;;;;;;;;17.30;99.90;;;;;;5036560;28;19924;-87
2021/07/06 01:16:13;;;;;;;;;;;17.30;99.90;;;;;;5052111;28;19924;-86
2021/07/06 01:18:38;;;;;;;;;;;17.30;99.90;;;;;;5053122;28;20307;-87
2021/07/06 01:21:04;;;;;;;;;;;17.30;99.90;;;;;;5052519;28;19924;-88
2021/07/06 01:23:31;;;;;;;;;;;17.30;99.90;;;;;;5036214;28;19924;-86
2021/07/06 01:26:01;;;;;;;;;;;17.30;99.90;;;;;;5036374;28;20321;-87
2021/07/06 01:28:27;;;;;;;;;;;17.30;99.90;;;;;;5051819;28;19921;-88
2021/07/06 01:30:53;;;;;;;;;;;17.30;99.90;;;;;;5070316;28;19946;-87
2021/07/06 01:33:23;;;;;;;;;;;17.30;99.90;;;;;;5052745;28;19925;-88
2021/07/06 01:35:49;;;;;;;;;;;17.20;99.90;;;;;;5028686;28;19977;-85
2021/07/06 01:38:15;;;;;;;;;;;17.30;99.90;;;;;;4999685;28;19964;-87
2021/07/06 01:40:41;;;;;;;;;;;17.20;99.90;;;;;;5064977;28;20039;-87
2021/07/06 01:43:06;;;;;;;;;;;17.20;99.90;;;;;;4999264;28;19979;-86
2021/07/06 01:45:33;;;;;;;;;;;17.20;99.90;;;;;;5032237;28;20359;-86
2021/07/06 01:48:00;;;;;;;;;;;17.20;99.90;;;;;;5048180;28;19948;-87
2021/07/06 01:50:27;;;;;;;;;;;17.20;99.90;;;;;;5055263;28;19925;-87
2021/07/06 01:52:54;;;;;;;;;;;17.20;99.90;;;;;;5051722;28;19963;-86
2021/07/06 01:55:22;;;;;;;;;;;17.20;99.90;;;;;;5051980;28;19931;-86
2021/07/06 01:57:48;;;;;;;;;;;17.20;99.90;;;;;;5051521;28;19932;-86
2021/07/06 02:00:16;;;;;;;;;;;17.20;99.90;;;;;;5035416;28;19924;-85
2021/07/06 02:02:42;;;;;;;;;;;17.20;99.90;;;;;;5051371;28;19924;-86
2021/07/06 02:05:08;;;;;;;;;;;17.20;99.90;;;;;;5051631;28;19924;-88
2021/07/06 02:07:37;;;;;;;;;;;17.30;99.90;;;;;;5067830;28;19920;-87
2021/07/06 02:10:03;;;;;;;;;;;17.20;99.90;;;;;;5051511;28;20405;-86
2021/07/06 02:12:29;;;;;;;;;;;17.30;99.90;;;;;;5051563;28;19963;-86
2021/07/06 02:14:55;;;;;;;;;;;17.20;99.90;;;;;;5035478;28;19956;-88
2021/07/06 02:17:20;;;;;;;;;;;17.20;99.90;;;;;;5068319;28;20309;-86
2021/07/06 02:19:46;;;;;;;;;;;17.30;99.90;;;;;;5070180;28;19925;-86
2021/07/06 02:22:16;;;;;;;;;;;17.30;99.90;;;;;;5055758;28;19924;-85
2021/07/06 02:24:42;;;;;;;;;;;17.30;99.90;;;;;;5071720;28;19992;-86
2021/07/06 02:27:08;;;;;;;;;;;17.30;99.90;;;;;;5071821;28;19935;-86
2021/07/06 02:29:33;;;;;;;;;;;17.20;99.90;;;;;;5054626;28;20387;-88
2021/07/06 02:31:59;;;;;;;;;;;17.20;99.90;;;;;;5071820;28;20075;-86
2021/07/06 02:34:25;;;;;;;;;;;17.20;99.90;;;;;;5055049;28;19924;-88
2021/07/06 02:36:50;;;;;;;;;;;17.20;99.90;;;;;;5054835;28;19924;-86
2021/07/06 02:39:16;;;;;;;;;;;17.30;99.90;;;;;;5054975;28;19920;-86
2021/07/06 02:41:42;;;;;;;;;;;17.20;99.90;;;;;;5071019;28;19990;-88
2021/07/06 02:44:07;;;;;;;;;;;17.20;99.90;;;;;;5055248;28;20298;-86
2021/07/06 02:46:33;;;;;;;;;;;17.30;99.90;;;;;;5071277;28;19963;-86
2021/07/06 02:48:59;;;;;;;;;;;17.20;99.90;;;;;;5070136;28;19924;-86
2021/07/06 02:51:24;;;;;;;;;;;17.20;99.90;;;;;;5060622;28;20334;-86
2021/07/06 02:53:51;;;;;;;;;;;17.20;99.90;;;;;;5034998;28;19932;-85
2021/07/06 02:56:17;;;;;;;;;;;17.30;99.90;;;;;;5034609;28;19932;-86
2021/07/06 02:58:43;;;;;;;;;;;17.30;99.90;;;;;;5034455;28;19931;-86
2021/07/06 03:01:09;;;;;;;;;;;17.30;99.90;;;;;;5034240;28;19930;-88
2021/07/06 03:03:35;;;;;;;;;;;17.30;99.90;;;;;;5034008;28;19921;-86
2021/07/06 03:06:00;;;;;;;;;;;17.30;99.90;;;;;;5034126;28;19929;-88
2021/07/06 03:08:30;;;;;;;;;;;17.20;99.90;;;;;;5050977;28;19916;-86
2021/07/06 03:10:55;;;;;;;;;;;17.30;99.90;;;;;;5002168;28;19925;-86
2021/07/06 03:13:21;;;;;;;;;;;17.30;99.90;;;;;;5034270;28;19927;-86
2021/07/06 03:15:47;;;;;;;;;;;17.30;99.90;;;;;;5039899;28;20477;-87
2021/07/06 03:18:12;;;;;;;;;;;17.30;99.90;;;;;;5018126;28;19936;-86
2021/07/06 03:20:38;;;;;;;;;;;17.30;99.90;;;;;;5029890;28;19928;-87
2021/07/06 03:23:04;;;;;;;;;;;17.30;99.90;;;;;;5070491;28;20168;-88
2021/07/06 03:25:30;;;;;;;;;;;17.30;99.90;;;;;;5054013;28;19925;-86
2021/07/06 03:27:57;;;;;;;;;;;17.30;99.90;;;;;;5053902;28;20387;-86
2021/07/06 03:30:23;;;;;;;;;;;17.30;99.90;;;;;;5086719;28;19977;-87
2021/07/06 03:32:50;;;;;;;;;;;17.30;99.90;;;;;;5053589;28;19927;-86
2021/07/06 03:35:16;;;;;;;;;;;17.30;99.90;;;;;;5037424;28;19921;-86
2021/07/06 03:37:42;;;;;;;;;;;17.30;99.90;;;;;;5037330;28;19932;-87
2021/07/06 03:40:09;;;;;;;;;;;17.30;99.90;;;;;;5053556;28;19928;-86
2021/07/06 03:42:35;;;;;;;;;;;17.30;99.90;;;;;;5071062;28;19994;-87
2021/07/06 03:45:00;;;;;;;;;;;17.30;99.90;;;;;;5070669;28;20504;-87
2021/07/06 03:47:26;;;;;;;;;;;17.30;99.90;;;;;;5053679;28;19925;-86
2021/07/06 03:49:52;;;;;;;;;;;17.40;99.90;;;;;;5068230;28;20668;-85
2021/07/06 03:52:18;;;;;;;;;;;17.40;99.90;;;;;;5082710;28;20024;-85
2021/07/06 03:54:44;;;;;;;;;;;17.40;99.90;;;;;;5070349;28;19935;-86
2021/07/06 03:57:09;;;;;;;;;;;17.40;99.90;;;;;;5036111;28;20669;-86
2021/07/06 03:59:35;;;;;;;;;;;17.40;99.90;;;;;;5053541;28;20267;-87
2021/07/06 04:02:01;;;;;;;;;;;17.40;99.90;;;;;;5070290;28;19925;-87
2021/07/06 04:04:27;;;;;;;;;;;17.40;99.90;;;;;;5036997;28;20409;-87
2021/07/06 04:06:52;;;;;;;;;;;17.40;99.90;;;;;;5036474;28;20264;-86
2021/07/06 04:09:18;;;;;;;;;;;17.40;99.90;;;;;;5036693;28;19920;-87
2021/07/06 04:11:44;;;;;;;;;;;17.40;99.90;;;;;;5036771;28;19925;-87
2021/07/06 04:14:10;;;;;;;;;;;17.40;99.90;;;;;;5071085;28;19978;-87
2021/07/06 04:16:37;;;;;;;;;;;17.40;99.90;;;;;;5069359;28;20329;-87
2021/07/06 04:19:03;;;;;;;;;;;17.50;99.90;;;;;;5052944;28;19949;-88
2021/07/06 04:21:29;;;;;;;;;;;17.50;99.90;;;;;;5053590;28;20390;-88
2021/07/06 04:23:55;;;;;;;;;;;17.50;99.90;;;;;;5038185;28;20007;-88
2021/07/06 04:26:20;;;;;;;;;;;17.50;99.90;;;;;;5036259;28;20438;-88
2021/07/06 04:28:46;;;;;;;;;;;17.50;99.90;;;;;;5050857;28;19921;-87
2021/07/06 04:31:12;;;;;;;;;;;17.50;99.90;;;;;;5049512;28;19925;-88
2021/07/06 04:33:38;;;;;;;;;;;17.50;99.90;;;;;;5019687;28;20035;-88
2021/07/06 04:36:04;;;;;;;;;;;17.50;99.90;;;;;;5049807;28;20385;-87
2021/07/06 04:38:30;;;;;;;;;;;17.60;99.90;;;;;;5032788;28;20016;-88
2021/07/06 04:40:55;;;;;;;;;;;17.60;99.90;;;;;;5032703;28;19931;-88
2021/07/06 04:43:22;;;;;;;;;;;17.60;99.90;;;;;;5031842;28;20398;-87
2021/07/06 04:45:48;;;;;;;;;;;17.60;99.90;;;;;;5049005;28;19940;-87
2021/07/06 04:48:17;;;;;;;;;;;17.60;99.90;;;;;;5065944;28;19924;-87
2021/07/06 04:50:43;;;;;;;;;;;17.60;99.90;;;;;;5015037;28;19924;-89
2021/07/06 04:53:09;;;;;;;;;;;17.60;99.90;;;;;;5063055;28;19924;-88
2021/07/06 04:55:36;;;;;;;;;;;17.70;99.90;;;;;;5016031;28;20071;-88
2021/07/06 04:58:02;;;;;;;;;;;17.70;99.90;;;;;;5049211;28;19955;-88
2021/07/06 05:00:28;;;;;;;;;;;17.70;99.90;;;;;;5050696;28;20382;-90
2021/07/06 05:02:54;;;;;;;;;;;17.70;99.90;;;;;;5018336;28;19931;-88
2021/07/06 05:05:19;;;;;;;;;;;17.70;99.90;;;;;;5034756;28;19964;-88
2021/07/06 05:07:45;;;;;;;;;;;17.70;99.90;;;;;;5035573;28;20345;-88
2021/07/06 05:10:13;;;;;;;;;;;17.80;99.90;;;;;;5052118;28;19931;-88
2021/07/06 05:12:39;;;;;;;;;;;17.80;99.90;;;;;;5049190;28;19970;-88
2021/07/06 05:15:05;;;;;;;;;;;17.80;99.90;;;;;;5049529;28;20402;-87
2021/07/06 05:17:31;;;;;;;;;;;17.80;99.90;;;;;;5051916;28;19924;-87
2021/07/06 05:19:57;;;;;;;;;;;17.80;99.90;;;;;;5041969;28;20452;-88
2021/07/06 05:22:23;;;;;;;;;;;17.80;99.90;;;;;;5049610;28;20027;-88
2021/07/06 05:24:49;;;;;;;;;;;17.80;99.90;;;;;;5049996;28;19921;-88
2021/07/06 05:27:15;;;;;;;;;;;17.80;99.90;;;;;;5042501;28;19924;-88
2021/07/06 05:29:41;;;;;;;;;;;17.80;99.90;;;;;;5051843;28;19994;-88
2021/07/06 05:32:07;;;;;;;;;;;17.80;99.90;;;;;;5069216;28;19927;-88
2021/07/06 05:34:32;;;;;;;;;;;17.90;99.90;;;;;;5053247;28;20015;-88
2021/07/06 05:36:58;;;;;;;;;;;17.80;99.90;;;;;;5052930;28;19924;-87
2021/07/06 05:39:24;;;;;;;;;;;17.90;99.90;;;;;;5053134;28;19944;-88
2021/07/06 05:41:50;;;;;;;;;;;17.90;99.90;;;;;;5069302;28;19931;-87
2021/07/06 05:44:16;;;;;;;;;;;17.90;99.90;;;;;;5036505;28;20026;-88
2021/07/06 05:46:42;;;;;;;;;;;17.90;99.90;;;;;;5069527;28;20997;-87
2021/07/06 05:49:07;;;;;;;;;;;17.90;99.90;;;;;;5068884;28;19928;-87
2021/07/06 05:51:33;;;;;;;;;;;17.80;99.90;;;;;;5052569;28;19928;-87
2021/07/06 05:53:59;;;;;;;;;;;17.90;99.90;;;;;;5054467;28;20382;-87
2021/07/06 05:56:25;;;;;;;;;;;17.90;99.90;;;;;;5040120;28;20379;-88
2021/07/06 05:58:50;;;;;;;;;;;17.90;99.90;;;;;;5056406;28;19925;-87
2021/07/06 06:01:17;;;;;;;;;;;17.90;99.90;;;;;;5040812;28;19944;-89
2021/07/06 06:03:44;;;;;;;;;;;17.80;99.90;;;;;;5040493;28;19927;-87
2021/07/06 06:06:10;;;;;;;;;;;17.80;99.90;;;;;;5074052;28;19924;-87
2021/07/06 06:08:36;;;;;;;;;;;17.80;99.90;;;;;;5039873;28;19924;-88
2021/07/06 06:11:02;;;;;;;;;;;17.80;99.90;;;;;;5056336;28;20375;-88
2021/07/06 06:13:28;;;;;;;;;;;17.80;99.90;;;;;;5036836;28;19958;-87
2021/07/06 06:15:54;;;;;;;;;;;17.80;99.90;;;;;;5022321;28;19920;-89
2021/07/06 06:18:19;;;;;;;;;;;17.80;99.90;;;;;;5020338;28;20016;-87
2021/07/06 06:20:45;;;;;;;;;;;17.90;99.90;;;;;;5019688;28;20372;-87
2021/07/06 06:23:11;;;;;;;;;;;17.90;99.90;;;;;;5014665;28;19938;-88
2021/07/06 06:25:37;;;;;;;;;;;17.90;99.90;;;;;;5056541;28;19928;-87
2021/07/06 06:28:03;;;;;;;;;;;17.90;99.90;;;;;;5056360;28;19925;-88
2021/07/06 06:30:28;;;;;;;;;;;17.90;99.90;;;;;;5038928;28;20402;-88
2021/07/06 06:32:55;;;;;;;;;;;18.00;99.90;;;;;;5056580;28;19971;-87
2021/07/06 06:35:22;;;;;;;;;;;18.00;99.90;;;;;;5073183;28;20256;-88
2021/07/06 06:37:47;;;;;;;;;;;18.00;99.90;;;;;;5056189;28;20027;-89
2021/07/06 06:40:13;;;;;;;;;;;18.10;99.90;;;;;;5056490;28;20019;-88
2021/07/06 06:42:40;;;;;;;;;;;18.10;99.90;;;;;;5038935;28;19928;-87
2021/07/06 06:45:07;;;;;;;;;;;18.10;99.90;;;;;;5056736;28;20291;-88
2021/07/06 06:47:33;;;;;;;;;;;18.20;99.90;;;;;;5072362;28;19931;-88
2021/07/06 06:49:59;;;;;;;;;;;18.20;99.90;;;;;;5055114;28;19920;-87
2021/07/06 06:52:25;;;;;;;;;;;18.30;99.90;;;;;;5054697;28;19924;-87
2021/07/06 06:54:51;;;;;;;;;;;18.30;99.90;;;;;;5022562;28;19924;-87
2021/07/06 06:57:21;;;;;;;;;;;18.30;99.90;;;;;;5071390;28;19928;-89
2021/07/06 06:59:50;;;;;;;;;;;18.30;99.90;;;;;;5037893;28;19921;-86
2021/07/06 07:02:17;;;;;;;;;;;18.30;99.90;;;;;;5054132;28;19924;-87
2021/07/06 07:05:01;;;;;;;;;;;18.30;99.90;;;;;;5050314;28;20390;-88
2021/07/06 07:07:26;;;;;;;;;;;18.40;99.90;;;;;;5054710;28;19921;-87
2021/07/06 07:09:52;;;;;;;;;;;18.40;99.90;;;;;;5054209;28;20345;-87
2021/07/06 07:12:19;;;;;;;;;;;18.40;99.90;;;;;;5037212;28;20015;-87
2021/07/06 07:14:45;;;;;;;;;;;18.40;99.90;;;;;;5053395;28;19925;-87
2021/07/06 07:17:11;;;;;;;;;;;18.40;99.90;;;;;;5054549;28;19928;-86
2021/07/06 07:19:37;;;;;;;;;;;18.40;99.90;;;;;;5036406;28;19982;-89
2021/07/06 07:22:03;;;;;;;;;;;18.50;99.90;;;;;;5053558;28;20027;-87
2021/07/06 07:24:29;;;;;;;;;;;18.50;99.90;;;;;;5087530;28;19920;-86
2021/07/06 07:26:55;;;;;;;;;;;18.60;99.90;;;;;;5054615;28;19926;-87
2021/07/06 07:29:21;;;;;;;;;;;18.60;99.90;;;;;;5037787;28;19968;-87
2021/07/06 07:31:46;;;;;;;;;;;18.70;99.90;;;;;;5070912;28;19963;-88
2021/07/06 07:34:12;;;;;;;;;;;18.70;99.90;;;;;;5070885;28;19916;-87
2021/07/06 07:36:40;;;;;;;;;;;18.70;99.90;;;;;;5054390;28;19924;-88
2021/07/06 07:39:06;;;;;;;;;;;18.70;99.90;;;;;;5104370;28;19982;-86
2021/07/06 07:41:32;;;;;;;;;;;18.80;99.90;;;;;;5070862;28;20387;-88
2021/07/06 07:43:57;;;;;;;;;;;18.80;99.90;;;;;;5069607;28;20034;-86
2021/07/06 07:46:24;;;;;;;;;;;18.80;99.90;;;;;;5054273;28;20015;-86
2021/07/06 07:48:50;;;;;;;;;;;18.90;99.90;;;;;;5053303;28;19921;-88
2021/07/06 07:51:16;;;;;;;;;;;18.90;99.90;;;;;;5062494;28;19925;-85
2021/07/06 07:53:42;;;;;;;;;;;18.90;99.90;;;;;;5037465;28;19969;-87
2021/07/06 07:56:07;;;;;;;;;;;19.00;99.90;;;;;;5019690;28;19928;-86
2021/07/06 07:58:34;;;;;;;;;;;19.10;99.90;;;;;;5017373;28;20039;-86
2021/07/06 08:01:00;;;;;;;;;;;19.10;99.90;;;;;;5059908;28;20631;-86
2021/07/06 08:03:25;;;;;;;;;;;19.10;99.90;;;;;;5037079;28;19920;-86
2021/07/06 08:05:51;;;;;;;;;;;19.20;99.90;;;;;;5036114;28;20011;-85
2021/07/06 08:08:17;;;;;;;;;;;19.30;99.90;;;;;;5053165;28;19966;-87
2021/07/06 08:10:43;;;;;;;;;;;19.20;99.90;;;;;;5052768;28;20488;-85
2021/07/06 08:13:11;;;;;;;;;;;19.30;99.90;;;;;;5036581;28;19928;-87
2021/07/06 08:15:37;;;;;;;;;;;19.30;99.90;;;;;;5070016;28;19967;-87
2021/07/06 08:18:03;;;;;;;;;;;19.30;99.90;;;;;;5053224;28;20409;-86
2021/07/06 08:20:28;;;;;;;;;;;19.30;99.90;;;;;;5052734;28;19925;-86
2021/07/06 08:22:57;;;;;;;;;;;19.30;99.90;;;;;;5035841;28;20302;-86
2021/07/06 08:25:24;;;;;;;;;;;19.30;99.90;;;;;;5036266;28;19921;-88
2021/07/06 08:27:50;;;;;;;;;;;19.30;99.90;;;;;;5052150;28;19930;-86
2021/07/06 08:30:16;;;;;;;;;;;19.30;99.90;;;;;;5034461;28;19920;-87
2021/07/06 08:32:42;;;;;;;;;;;19.30;99.90;;;;;;5048491;28;19925;-86
2021/07/06 08:35:09;;;;;;;;;;;19.40;99.90;;;;;;5064862;28;19967;-88
2021/07/06 08:37:35;;;;;;;;;;;19.40;99.90;;;;;;5048629;28;20383;-86
2021/07/06 08:40:02;;;;;;;;;;;19.50;99.90;;;;;;5032395;28;19975;-85
2021/07/06 08:42:28;;;;;;;;;;;19.40;99.90;;;;;;5032122;28;19925;-86
2021/07/06 08:44:54;;;;;;;;;;;19.40;99.90;;;;;;5049344;28;20336;-86
2021/07/06 08:47:20;;;;;;;;;;;19.50;99.90;;;;;;5032808;28;19974;-86
2021/07/06 08:49:47;;;;;;;;;;;19.50;99.90;;;;;;5032350;28;20024;-88
2021/07/06 08:52:14;;;;;;;;;;;19.70;99.90;;;;;;5062490;28;19928;-86
2021/07/06 08:54:40;;;;;;;;;;;19.70;99.90;;;;;;5052084;28;20295;-87
2021/07/06 08:57:06;;;;;;;;;;;19.80;99.90;;;;;;5019015;28;19927;-88
2021/07/06 08:59:40;;;;;;;;;;;19.80;99.90;;;;;;5035590;28;19932;-87
2021/07/06 09:02:06;;;;;;;;;;;19.80;99.90;;;;;;5050451;28;19974;-86
2021/07/06 09:04:45;;;;;;;;;;;19.90;99.90;;;;;;5052116;28;20398;-86
2021/07/06 09:07:11;;;;;;;;;;;20.00;99.90;;;;;;5052523;28;19924;-87
2021/07/06 09:09:37;;;;;;;;;;;20.00;99.90;;;;;;5051858;28;19924;-85
2021/07/06 09:12:03;;;;;;;;;;;20.00;99.90;;;;;;5051810;28;19924;-85
2021/07/06 09:14:30;;;;;;;;;;;19.90;99.90;;;;;;5051869;28;19920;-86
2021/07/06 09:17:22;;;;;;;;;;;20.00;99.90;;;;;;5052749;28;19970;-86
2021/07/06 09:19:49;;;;;;;;;;;19.90;99.90;;;;;;5049980;28;19938;-87
2021/07/06 09:22:20;;;;;;;;;;;19.90;99.90;;;;;;5051433;28;19924;-87
2021/07/06 09:24:47;;;;;;;;;;;19.90;99.90;;;;;;5069491;28;19923;-86
2021/07/06 09:27:25;;;;;;;;;;;19.90;99.90;;;;;;5051819;28;19921;-87
2021/07/06 09:30:04;;;;;;;;;;;19.90;99.90;;;;;;5072512;28;20371;-88
2021/07/06 09:32:30;;;;;;;;;;;20.00;99.90;;;;;;5035802;28;20433;-87
2021/07/06 09:34:55;;;;;;;;;;;20.00;99.90;;;;;;5052886;28;19921;-86
2021/07/06 09:37:21;;;;;;;;;;;20.00;99.90;;;;;;5053300;28;19924;-87
2021/07/06 09:39:47;;;;;;;;;;;20.10;99.90;;;;;;5052803;28;20326;-86
2021/07/06 09:42:14;;;;;;;;;;;20.10;99.90;;;;;;5052418;28;19920;-88
2021/07/06 09:44:41;;;;;;;;;;;20.10;99.90;;;;;;5053182;28;19994;-87
2021/07/06 09:47:08;;;;;;;;;;;20.10;99.90;;;;;;5053221;28;19956;-87
2021/07/06 09:49:53;;;;;;;;;;;20.00;99.90;;;;;;5067010;28;19928;-86
2021/07/06 09:52:20;;;;;;;;;;;20.00;99.90;;;;;;5055613;28;20290;-86
2021/07/06 09:54:46;;;;;;;;;;;20.00;99.90;;;;;;5055384;28;19925;-86
2021/07/06 09:57:19;;;;;;;;;;;20.00;99.90;;;;;;5055605;28;20015;-88
2021/07/06 10:00:02;;;;;;;;;;;20.00;99.90;;;;;;5055656;28;19924;-88
2021/07/06 10:02:29;;;;;;;;;;;20.10;99.90;;;;;;5084968;28;19935;-85
2021/07/06 10:04:56;;;;;;;;;;;20.10;99.90;;;;;;5068600;28;20015;-87
2021/07/06 10:07:23;;;;;;;;;;;20.10;99.90;;;;;;5053570;28;20287;-86
2021/07/06 10:09:49;;;;;;;;;;;20.10;99.90;;;;;;5051600;28;21098;-85
2021/07/06 10:12:18;;;;;;;;;;;20.10;99.90;;;;;;5068251;28;19936;-86
2021/07/06 10:14:44;;;;;;;;;;;20.20;99.90;;;;;;5035353;28;19931;-86
2021/07/06 10:17:11;;;;;;;;;;;20.40;99.90;;;;;;5039212;28;19925;-86
2021/07/06 10:19:38;;;;;;;;;;;20.40;99.90;;;;;;5055449;28;20015;-86
2021/07/06 10:22:05;;;;;;;;;;;20.40;99.90;;;;;;5054599;28;19920;-86
2021/07/06 10:24:34;;;;;;;;;;;20.40;99.90;;;;;;5054579;28;20361;-87
2021/07/06 10:27:04;;;;;;;;;;;20.30;99.90;;;;;;5072466;28;19960;-85
2021/07/06 10:29:33;;;;;;;;;;;20.20;99.90;;;;;;5054312;28;19927;-84
2021/07/06 10:31:59;;;;;;;;;;;20.20;99.90;;;;;;5053356;28;19924;-86
2021/07/06 10:34:28;;;;;;;;;;;20.10;99.90;;;;;;5054757;28;20487;-86
2021/07/06 10:36:54;;;;;;;;;;;20.10;99.90;;;;;;5054299;28;20290;-86
2021/07/06 10:39:39;;;;;;;;;;;20.10;99.90;;;;;;5070889;28;20023;-85
2021/07/06 10:42:08;;;;;;;;;;;20.10;99.90;;;;;;5054166;28;19920;-85
2021/07/06 10:44:34;;;;;;;;;;;20.20;99.90;;;;;;5037590;28;20061;-85
2021/07/06 10:47:01;;;;;;;;;;;20.40;99.90;;;;;;5072687;28;19991;-86
2021/07/06 10:49:33;;;;;;;;;;;20.60;99.90;;;;;;5087739;28;19926;-86
2021/07/06 10:52:01;;;;;;;;;;;20.70;99.90;;;;;;5025755;28;20387;-84
2021/07/06 10:54:28;;;;;;;;;;;20.80;99.90;;;;;;5034307;28;20326;-85
2021/07/06 10:57:06;;;;;;;;;;;20.90;99.90;;;;;;5033752;28;19921;-85
2021/07/06 10:59:31;;;;;;;;;;;20.90;99.90;;;;;;5050862;28;20439;-87
2021/07/06 11:01:58;;;;;;;;;;;20.90;99.90;;;;;;5051807;28;19932;-85
2021/07/06 11:04:43;;;;;;;;;;;20.90;99.90;;;;;;5051716;28;19925;-86
2021/07/06 11:07:09;;;;;;;;;;;20.90;99.90;;;;;;5050214;28;20264;-86
2021/07/06 11:09:35;;;;;;;;;;;21.00;99.90;;;;;;5050140;28;19964;-84
2021/07/06 11:12:23;;;;;;;;;;;21.00;99.90;;;;;;5050059;28;20395;-85
2021/07/06 11:14:50;;;;;;;;;;;21.00;99.90;;;;;;5052343;28;19928;-85
2021/07/06 11:17:34;;;;;;;;;;;21.10;99.90;;;;;;5037281;28;19927;-85
2021/07/06 11:20:07;;;;;;;;;;;21.10;99.90;;;;;;5070177;28;19928;-85
2021/07/06 11:22:42;;;;;;;;;;;21.10;99.90;;;;;;5070274;28;19925;-87
2021/07/06 11:25:21;;;;;;;;;;;21.10;99.90;;;;;;5069621;28;19955;-84
2021/07/06 11:27:57;;;;;;;;;;;21.10;99.90;;;;;;5053565;28;20030;-85
2021/07/06 11:30:26;;;;;;;;;;;21.10;99.90;;;;;;5086231;28;19935;-85
2021/07/06 11:33:06;;;;;;;;;;;21.20;99.90;;;;;;5068774;28;19931;-85
2021/07/06 11:35:32;;;;;;;;;;;21.20;99.90;;;;;;5052988;28;19927;-85
2021/07/06 11:37:59;;;;;;;;;;;21.10;99.90;;;;;;5053639;28;19978;-84
2021/07/06 11:40:25;;;;;;;;;;;21.10;99.90;;;;;;5053014;28;19924;-84
2021/07/06 11:42:52;;;;;;;;;;;21.10;99.90;;;;;;5052636;28;19928;-86
2021/07/06 11:45:20;;;;;;;;;;;20.90;99.90;;;;;;5053000;28;19935;-84
2021/07/06 11:47:46;;;;;;;;;;;20.90;99.90;;;;;;5053326;28;20401;-86
2021/07/06 11:50:25;;;;;;;;;;;20.80;99.90;;;;;;5070605;28;19932;-86
2021/07/06 11:52:50;;;;;;;;;;;20.80;99.90;;;;;;5035880;28;19920;-86
2021/07/06 11:55:22;;;;;;;;;;;21.00;99.90;;;;;;5086433;28;19926;-86
2021/07/06 11:57:50;;;;;;;;;;;21.10;99.90;;;;;;5052553;28;20050;-86
2021/07/06 12:00:17;;;;;;;;;;;21.10;99.90;;;;;;5032963;28;19967;-86
2021/07/06 12:02:44;;;;;;;;;;;21.20;99.90;;;;;;5066268;28;19929;-85
2021/07/06 12:05:14;;;;;;;;;;;21.30;99.90;;;;;;5049317;28;20558;-86
2021/07/06 12:07:39;;;;;;;;;;;21.30;99.90;;;;;;5050480;28;19932;-85
2021/07/06 12:10:06;;;;;;;;;;;21.30;99.90;;;;;;5048346;28;19924;-85
2021/07/06 12:12:32;;;;;;;;;;;21.30;99.90;;;;;;5048705;28;19974;-84
2021/07/06 12:14:58;;;;;;;;;;;21.20;99.90;;;;;;5050997;28;19924;-86
2021/07/06 12:17:24;;;;;;;;;;;21.10;99.90;;;;;;5069460;28;19931;-84
2021/07/06 12:19:50;;;;;;;;;;;21.00;99.90;;;;;;5035954;28;19920;-85
2021/07/06 12:22:20;;;;;;;;;;;21.10;99.90;;;;;;5052632;28;19924;-86
2021/07/06 12:24:46;;;;;;;;;;;21.20;99.90;;;;;;5035962;28;19927;-86
2021/07/06 12:27:15;;;;;;;;;;;21.20;99.90;;;;;;5070366;28;20363;-87
2021/07/06 12:29:41;;;;;;;;;;;21.30;99.90;;;;;;5051268;28;19971;-85
2021/07/06 12:32:12;;;;;;;;;;;21.40;99.90;;;;;;5068461;28;20389;-86
2021/07/06 12:34:38;;;;;;;;;;;21.40;99.90;;;;;;5052179;28;19920;-86
2021/07/06 12:37:04;;;;;;;;;;;21.50;99.90;;;;;;5052446;28;20375;-88
2021/07/06 12:39:34;;;;;;;;;;;21.50;99.90;;;;;;5052926;28;19970;-87
2021/07/06 12:42:01;;;;;;;;;;;21.40;99.90;;;;;;5085838;28;19985;-86
2021/07/06 12:44:32;;;;;;;;;;;21.50;99.90;;;;;;5085650;28;19927;-86
2021/07/06 12:47:18;;;;;;;;;;;21.60;99.90;;;;;;5085863;28;19928;-86
2021/07/06 12:49:45;;;;;;;;;;;21.60;99.90;;;;;;5052004;28;19928;-87
2021/07/06 12:52:11;;;;;;;;;;;21.50;99.90;;;;;;5041117;28;20459;-86
2021/07/06 12:54:37;;;;;;;;;;;21.30;99.90;;;;;;5051132;28;19928;-87
2021/07/06 12:57:03;;;;;;;;;;;21.20;99.90;;;;;;5068525;28;19926;-87
2021/07/06 12:59:30;;;;;;;;;;;21.10;99.90;;;;;;5055353;28;19993;-85
2021/07/06 13:01:57;;;;;;;;;;;21.10;99.90;;;;;;5049786;28;19970;-87
2021/07/06 13:04:41;;;;;;;;;;;21.10;99.90;;;;;;5048750;28;20000;-88
2021/07/06 13:07:07;;;;;;;;;;;21.00;99.90;;;;;;5065172;28;19925;-87
2021/07/06 13:09:33;;;;;;;;;;;21.00;99.90;;;;;;5049853;28;19933;-87
2021/07/06 13:12:11;;;;;;;;;;;20.90;99.90;;;;;;5048853;28;19925;-87
2021/07/06 13:14:37;;;;;;;;;;;20.90;99.90;;;;;;5049142;28;19917;-86
2021/07/06 13:17:19;;;;;;;;;;;20.90;99.90;;;;;;5049410;28;19920;-87
2021/07/06 13:19:56;;;;;;;;;;;20.80;99.90;;;;;;5016368;28;20028;-87
2021/07/06 13:22:21;;;;;;;;;;;20.80;99.90;;;;;;5015955;28;20592;-87
2021/07/06 13:24:47;;;;;;;;;;;20.70;99.90;;;;;;5067936;28;19963;-87
2021/07/06 13:27:13;;;;;;;;;;;20.70;99.90;;;;;;5052244;28;19921;-87
2021/07/06 13:29:38;;;;;;;;;;;20.70;99.90;;;;;;5062088;28;19929;-87
2021/07/06 13:32:04;;;;;;;;;;;20.70;99.90;;;;;;5033030;28;19928;-89
2021/07/06 13:34:30;;;;;;;;;;;20.60;99.90;;;;;;5085945;28;20396;-88
2021/07/06 13:36:55;;;;;;;;;;;20.60;99.90;;;;;;5068985;28;19926;-87
2021/07/06 13:39:21;;;;;;;;;;;20.50;99.90;;;;;;5052473;28;21464;-87
2021/07/06 13:41:47;;;;;;;;;;;20.40;99.90;;;;;;5019246;28;20015;-87
2021/07/06 13:44:13;;;;;;;;;;;20.30;99.90;;;;;;5067165;28;20378;-86
2021/07/06 13:46:38;;;;;;;;;;;20.20;99.90;;;;;;5085417;28;20470;-85
2021/07/06 13:49:04;;;;;;;;;;;20.20;99.90;;;;;;5047332;28;19920;-86
2021/07/06 13:51:30;;;;;;;;;;;20.10;99.90;;;;;;5018769;28;20370;-86
2021/07/06 13:54:04;;;;;;;;;;;20.10;99.90;;;;;;5035426;28;20433;-86
2021/07/06 13:56:30;;;;;;;;;;;20.10;99.90;;;;;;5051404;28;20024;-87
2021/07/06 13:58:56;;;;;;;;;;;20.20;99.90;;;;;;5049514;28;20454;-88
2021/07/06 14:01:21;;;;;;;;;;;20.20;99.90;;;;;;5031680;28;20295;-87
2021/07/06 14:03:48;;;;;;;;;;;20.10;99.90;;;;;;5051176;28;19920;-87
2021/07/06 14:06:16;;;;;;;;;;;20.10;99.90;;;;;;5035204;28;19967;-86
2021/07/06 14:08:45;;;;;;;;;;;20.00;99.90;;;;;;5051370;28;19999;-86
2021/07/06 14:11:16;;;;;;;;;;;19.90;99.90;;;;;;5036476;28;19924;-88
2021/07/06 14:13:42;;;;;;;;;;;19.90;99.90;;;;;;5052184;28;19956;-90
2021/07/06 14:16:08;;;;;;;;;;;19.80;99.90;;;;;;5030437;28;19960;-86